Time;durP1;ratioP1;P1;durP2;ratioP2;P2;SDS_P1;SDS_P2;PMS_P1;PMS_P2;Temp;Humidity;BMP_temperature;BMP_pressure;BME280_temperature;BME280_humidity;BME280_pressure;Samples;Min_cycle;Max_cycle;Signal;HPM_P1;HPM_P2
2023/10/20 00:01:26;;;;;;;6.70;3.58;;;25.10;99.90;;;;;;5053342;28;20524;-54
2023/10/20 00:03:52;;;;;;;6.00;3.53;;;25.10;99.90;;;;;;5052877;28;20033;-53
2023/10/20 00:06:17;;;;;;;5.15;3.00;;;25.00;99.90;;;;;;5052618;28;20477;-54
2023/10/20 00:08:44;;;;;;;4.93;3.30;;;25.10;99.90;;;;;;5052402;28;20385;-53
2023/10/20 00:11:10;;;;;;;5.50;3.22;;;25.10;99.90;;;;;;5052490;28;20040;-54
2023/10/20 00:13:36;;;;;;;7.05;3.83;;;25.10;99.90;;;;;;5052223;28;20025;-53
2023/10/20 00:16:03;;;;;;;4.78;2.83;;;25.10;99.90;;;;;;5052294;28;20036;-53
2023/10/20 00:18:29;;;;;;;6.28;3.42;;;25.10;99.90;;;;;;5052613;28;20052;-54
2023/10/20 00:20:55;;;;;;;5.95;3.28;;;25.10;99.90;;;;;;5052563;28;20106;-53
2023/10/20 00:23:21;;;;;;;5.45;3.30;;;25.00;99.90;;;;;;5052325;28;20025;-53
2023/10/20 00:25:46;;;;;;;6.03;3.30;;;25.00;99.90;;;;;;5052315;28;20025;-53
2023/10/20 00:28:12;;;;;;;5.50;3.10;;;25.10;99.90;;;;;;5052163;28;20029;-53
2023/10/20 00:30:41;;;;;;;5.28;3.42;;;25.10;99.90;;;;;;5052312;28;20481;-54
2023/10/20 00:33:07;;;;;;;6.18;3.22;;;25.00;99.90;;;;;;5052152;28;20047;-53
2023/10/20 00:35:34;;;;;;;6.40;3.50;;;25.10;99.90;;;;;;5052133;28;20025;-53
2023/10/20 00:38:01;;;;;;;6.68;3.10;;;25.10;99.90;;;;;;5052074;28;20123;-54
2023/10/20 00:40:27;;;;;;;6.82;3.45;;;25.10;99.90;;;;;;5052267;28;20025;-53
2023/10/20 00:42:53;;;;;;;5.53;2.92;;;25.10;99.90;;;;;;5052168;28;20029;-54
2023/10/20 00:45:19;;;;;;;6.40;3.42;;;25.10;99.90;;;;;;5052101;28;20040;-54
2023/10/20 00:47:45;;;;;;;4.57;3.10;;;25.00;99.90;;;;;;5052017;28;20021;-53
2023/10/20 00:50:13;;;;;;;5.15;2.95;;;25.10;99.90;;;;;;5051918;28;20033;-54
2023/10/20 00:52:45;;;;;;;5.20;2.42;;;25.10;99.90;;;;;;5051861;28;20112;-53
2023/10/20 00:55:13;;;;;;;5.03;2.80;;;25.10;99.90;;;;;;5051833;28;20033;-53
2023/10/20 00:57:41;;;;;;;6.65;2.97;;;25.10;99.90;;;;;;5034339;28;20018;-53
2023/10/20 01:00:11;;;;;;;5.43;2.53;;;25.10;99.90;;;;;;5051797;28;20025;-53
2023/10/20 01:02:48;;;;;;;5.72;2.90;;;25.10;99.90;;;;;;5050592;28;20056;-47
2023/10/20 01:05:22;;;;;;;4.97;2.80;;;25.10;99.90;;;;;;5051812;28;20025;-47
2023/10/20 01:07:48;;;;;;;5.25;3.15;;;25.10;99.90;;;;;;5052165;28;20350;-48
2023/10/20 01:10:14;;;;;;;5.10;2.70;;;25.00;99.90;;;;;;5051880;28;20029;-47
2023/10/20 01:12:40;;;;;;;4.85;2.45;;;25.00;99.90;;;;;;5051962;28;20020;-47
2023/10/20 01:15:06;;;;;;;7.30;3.08;;;25.00;99.90;;;;;;5051923;28;20033;-47
2023/10/20 01:17:33;;;;;;;6.93;2.63;;;25.00;99.90;;;;;;5051760;28;20021;-48
2023/10/20 01:20:04;;;;;;;5.65;2.55;;;25.00;99.90;;;;;;5052032;28;20028;-47
2023/10/20 01:22:30;;;;;;;4.68;2.88;;;25.00;99.90;;;;;;5052056;28;20021;-47
2023/10/20 01:24:56;;;;;;;5.22;2.58;;;25.00;99.90;;;;;;5054089;28;20032;-47
2023/10/20 01:27:22;;;;;;;6.28;2.85;;;25.00;99.90;;;;;;5055622;28;20075;-47
2023/10/20 01:29:48;;;;;;;5.93;2.47;;;25.00;99.90;;;;;;5055454;28;20423;-47
2023/10/20 01:32:14;;;;;;;4.07;2.58;;;25.00;99.90;;;;;;5055540;28;20025;-47
2023/10/20 01:34:41;;;;;;;5.70;2.77;;;25.00;99.90;;;;;;5055435;28;20032;-48
2023/10/20 01:37:11;;;;;;;6.20;2.80;;;25.00;99.90;;;;;;5055453;28;20021;-47
2023/10/20 01:39:37;;;;;;;4.13;2.28;;;25.00;99.90;;;;;;5055287;28;20542;-47
2023/10/20 01:42:03;;;;;;;6.35;3.13;;;25.00;99.90;;;;;;5055301;28;20396;-47
2023/10/20 01:44:29;;;;;;;4.63;2.40;;;25.00;99.90;;;;;;5055504;28;20021;-47
2023/10/20 01:46:55;;;;;;;6.82;2.90;;;25.00;99.90;;;;;;5055174;28;20102;-47
2023/10/20 01:49:21;;;;;;;4.30;2.30;;;24.90;99.90;;;;;;5020790;28;20033;-46
2023/10/20 01:51:47;;;;;;;4.93;2.58;;;25.00;99.90;;;;;;5055046;28;20028;-46
2023/10/20 01:54:12;;;;;;;5.00;2.50;;;25.00;99.90;;;;;;5054984;28;20501;-46
2023/10/20 01:56:38;;;;;;;6.43;3.38;;;25.00;99.90;;;;;;5055084;28;20021;-47
2023/10/20 01:59:04;;;;;;;5.88;2.58;;;25.00;99.90;;;;;;5055185;28;20071;-47
2023/10/20 02:01:30;;;;;;;6.00;2.80;;;25.00;99.90;;;;;;5067196;22;20530;-53
2023/10/20 02:03:56;;;;;;;3.53;2.63;;;25.00;99.90;;;;;;5054913;28;20056;-53
2023/10/20 02:06:22;;;;;;;3.88;2.28;;;25.00;99.90;;;;;;5054885;28;20021;-53
2023/10/20 02:08:47;;;;;;;4.55;2.67;;;25.00;99.90;;;;;;5054694;28;20407;-53
2023/10/20 02:11:13;;;;;;;4.45;2.70;;;24.90;99.90;;;;;;5054582;28;20094;-53
2023/10/20 02:13:40;;;;;;;3.22;1.90;;;24.90;99.90;;;;;;5037062;28;20024;-53
2023/10/20 02:16:10;;;;;;;3.47;2.08;;;24.90;99.90;;;;;;5054744;28;20060;-53
2023/10/20 02:18:36;;;;;;;6.25;2.85;;;24.90;99.90;;;;;;5054635;28;20036;-53
2023/10/20 02:21:03;;;;;;;3.50;2.78;;;24.90;99.90;;;;;;5054880;28;20090;-53
2023/10/20 02:23:34;;;;;;;5.25;1.98;;;25.00;99.90;;;;;;5054822;28;20437;-53
2023/10/20 02:26:02;;;;;;;4.50;2.72;;;24.90;99.90;;;;;;5054661;28;20074;-55
2023/10/20 02:28:28;;;;;;;3.85;2.20;;;24.90;99.90;;;;;;5054295;28;20021;-53
2023/10/20 02:30:59;;;;;;;4.53;2.50;;;24.90;99.90;;;;;;5054318;28;20075;-53
2023/10/20 02:33:25;;;;;;;3.50;2.25;;;24.90;99.90;;;;;;5054416;28;20029;-54
2023/10/20 02:35:54;;;;;;;3.83;2.15;;;24.90;99.90;;;;;;5036235;28;20075;-53
2023/10/20 02:38:20;;;;;;;5.10;2.58;;;24.90;99.90;;;;;;5054290;28;20021;-53
2023/10/20 02:40:50;;;;;;;5.38;2.10;;;24.90;99.90;;;;;;5054209;28;20021;-52
2023/10/20 02:43:16;;;;;;;3.60;2.40;;;24.90;99.90;;;;;;5054152;28;20070;-53
2023/10/20 02:45:53;;;;;;;5.70;2.70;;;24.90;99.90;;;;;;5054287;28;20130;-53
2023/10/20 02:48:20;;;;;;;4.18;2.25;;;24.90;99.90;;;;;;5054105;28;20078;-53
2023/10/20 02:50:46;;;;;;;5.05;2.15;;;24.90;99.90;;;;;;5054024;28;20033;-53
2023/10/20 02:53:15;;;;;;;3.53;2.28;;;24.90;99.90;;;;;;5054030;28;20155;-53
2023/10/20 02:55:41;;;;;;;4.85;1.92;;;24.80;99.90;;;;;;5053866;28;20067;-54
2023/10/20 02:58:11;;;;;;;3.00;2.03;;;24.80;99.90;;;;;;5053841;28;20492;-53
2023/10/20 03:00:44;;;;;;;3.97;2.20;;;24.80;99.90;;;;;;5054251;28;20693;-53
2023/10/20 03:03:13;;;;;;;4.40;2.05;;;24.80;99.90;;;;;;5053659;28;20045;-54
2023/10/20 03:05:41;;;;;;;3.85;2.28;;;24.80;99.90;;;;;;5053784;28;20029;-53
2023/10/20 03:08:08;;;;;;;4.65;2.22;;;24.80;99.90;;;;;;5053508;28;20037;-54
2023/10/20 03:10:35;;;;;;;3.43;2.47;;;24.80;99.90;;;;;;5053886;28;20116;-53
2023/10/20 03:13:01;;;;;;;5.55;2.08;;;24.80;99.90;;;;;;5053556;28;20633;-53
2023/10/20 03:15:27;;;;;;;3.35;2.10;;;24.80;99.90;;;;;;5053521;28;20039;-54
2023/10/20 03:17:52;;;;;;;5.55;2.58;;;24.80;99.90;;;;;;5053381;28;20029;-54
2023/10/20 03:20:24;;;;;;;5.07;2.67;;;24.80;99.90;;;;;;5053478;28;20036;-53
2023/10/20 03:22:51;;;;;;;4.45;2.10;;;24.80;99.90;;;;;;5053482;28;20100;-53
2023/10/20 03:25:18;;;;;;;4.90;2.10;;;24.80;99.90;;;;;;5053323;28;20024;-53
2023/10/20 03:27:44;;;;;;;3.50;2.22;;;24.70;99.90;;;;;;5053324;28;20021;-53
2023/10/20 03:30:10;;;;;;;6.55;2.40;;;24.70;99.90;;;;;;5035227;28;20044;-53
2023/10/20 03:32:36;;;;;;;5.10;2.47;;;24.70;99.90;;;;;;5053518;28;20017;-53
2023/10/20 03:35:02;;;;;;;7.70;2.50;;;24.70;99.90;;;;;;5053101;28;20027;-53
2023/10/20 03:37:29;;;;;;;6.47;2.72;;;24.70;99.90;;;;;;5053103;28;20083;-53
2023/10/20 03:39:55;;;;;;;3.35;2.10;;;24.70;99.90;;;;;;5053118;28;20055;-53
2023/10/20 03:42:21;;;;;;;5.30;2.08;;;24.70;99.90;;;;;;5053013;28;20527;-53
2023/10/20 03:44:48;;;;;;;4.40;2.65;;;24.70;99.90;;;;;;5053065;28;20499;-53
2023/10/20 03:47:15;;;;;;;6.22;2.30;;;24.70;99.90;;;;;;5052382;28;20033;-54
2023/10/20 03:49:41;;;;;;;5.30;2.35;;;24.70;99.90;;;;;;5052840;28;20053;-54
2023/10/20 03:52:11;;;;;;;3.50;1.80;;;24.70;99.90;;;;;;5053022;28;20017;-53
2023/10/20 03:54:38;;;;;;;5.18;2.13;;;24.70;99.90;;;;;;5053114;28;20009;-53
2023/10/20 03:57:04;;;;;;;5.70;3.22;;;24.70;99.90;;;;;;5052929;28;20017;-54
2023/10/20 03:59:31;;;;;;;3.97;2.35;;;24.70;99.90;;;;;;5052830;28;20029;-53
2023/10/20 04:01:57;;;;;;;3.92;2.42;;;24.70;99.90;;;;;;5053149;28;20048;-54
2023/10/20 04:04:23;;;;;;;3.35;1.83;;;24.70;99.90;;;;;;5052565;28;20116;-53
2023/10/20 04:06:49;;;;;;;3.85;2.25;;;24.70;99.90;;;;;;5052540;28;20017;-53
2023/10/20 04:09:17;;;;;;;4.38;2.13;;;24.60;99.90;;;;;;5052437;28;20059;-53
2023/10/20 04:11:44;;;;;;;4.47;2.28;;;24.70;99.90;;;;;;5052602;28;20032;-53
2023/10/20 04:14:10;;;;;;;3.90;2.38;;;24.70;99.90;;;;;;5052555;28;20021;-53
2023/10/20 04:16:41;;;;;;;4.07;2.30;;;24.70;99.90;;;;;;5034886;28;20474;-53
2023/10/20 04:19:09;;;;;;;5.60;2.25;;;24.60;99.90;;;;;;5035339;28;20017;-53
2023/10/20 04:21:38;;;;;;;3.10;2.33;;;24.60;99.90;;;;;;5052691;28;20484;-53
2023/10/20 04:24:07;;;;;;;4.50;2.13;;;24.60;99.90;;;;;;5052331;28;20092;-53
2023/10/20 04:26:35;;;;;;;3.67;1.98;;;24.60;99.90;;;;;;5052476;28;20415;-53
2023/10/20 04:41:50;;;;;;;5.63;2.25;;;24.60;99.90;;;;;;5052369;28;20454;-53
2023/10/20 04:43:34;;;;;;;4.45;2.05;;;24.50;99.90;;;;;;5051968;28;20055;-53
2023/10/20 04:49:12;;;;;;;4.93;2.15;;;24.50;99.90;;;;;;5051925;28;20074;-54
2023/10/20 04:54:09;;;;;;;3.75;2.13;;;24.50;99.90;;;;;;5052003;28;20091;-54
2023/10/20 04:57:19;;;;;;;4.40;2.05;;;24.50;99.90;;;;;;5051939;28;20032;-53
2023/10/20 04:59:31;;;;;;;4.88;2.22;;;24.50;99.90;;;;;;5052664;28;20120;-54
2023/10/20 05:02:06;;;;;;;5.22;2.20;;;24.50;99.90;;;;;;5055917;28;20068;-54
2023/10/20 05:04:40;;;;;;;3.67;2.13;;;24.50;99.90;;;;;;5055930;28;20040;-53
2023/10/20 05:07:09;;;;;;;3.78;2.08;;;24.50;99.90;;;;;;5055961;28;20017;-54
2023/10/20 05:09:43;;;;;;;5.22;2.30;;;24.50;99.90;;;;;;5055803;28;20495;-54
2023/10/20 05:12:09;;;;;;;3.28;2.10;;;24.50;99.90;;;;;;5056147;28;20032;-54
2023/10/20 05:14:35;;;;;;;3.58;2.28;;;24.50;99.90;;;;;;5055761;28;20021;-54
2023/10/20 05:17:01;;;;;;;4.38;2.35;;;24.50;99.90;;;;;;5055820;28;20025;-53
2023/10/20 05:19:32;;;;;;;4.30;2.13;;;24.50;99.90;;;;;;5055686;28;20021;-54
2023/10/20 05:21:59;;;;;;;5.03;2.22;;;24.40;99.90;;;;;;5055734;28;20039;-54
2023/10/20 05:24:25;;;;;;;3.20;1.80;;;24.40;99.90;;;;;;5055751;28;20468;-54
2023/10/20 05:26:51;;;;;;;5.88;2.17;;;24.40;99.90;;;;;;5055679;28;20028;-54
2023/10/20 05:29:17;;;;;;;4.65;1.90;;;24.40;99.90;;;;;;5055568;28;20033;-54
2023/10/20 05:31:43;;;;;;;4.23;1.97;;;24.40;99.90;;;;;;5037545;28;20017;-54
2023/10/20 05:34:09;;;;;;;6.15;2.28;;;24.40;99.90;;;;;;5055525;28;20499;-54
2023/10/20 05:36:35;;;;;;;5.55;1.98;;;24.40;99.90;;;;;;5055374;28;20013;-54
2023/10/20 05:39:01;;;;;;;6.10;1.80;;;24.30;99.90;;;;;;5055315;28;20025;-54
2023/10/20 05:41:27;;;;;;;6.03;2.28;;;24.40;99.90;;;;;;5055476;28;20100;-53
2023/10/20 05:43:54;;;;;;;4.20;1.90;;;24.30;99.90;;;;;;5037220;28;20021;-54
2023/10/20 05:46:21;;;;;;;4.88;1.95;;;24.40;99.90;;;;;;5055270;28;20028;-54
2023/10/20 05:48:47;;;;;;;4.40;1.87;;;24.30;99.90;;;;;;5054963;28;20163;-54
2023/10/20 05:51:13;;;;;;;5.35;2.30;;;24.40;99.90;;;;;;5055419;28;20302;-54
2023/10/20 05:53:39;;;;;;;4.38;1.80;;;24.40;99.90;;;;;;5055453;28;20044;-54
2023/10/20 05:56:05;;;;;;;5.55;1.80;;;24.40;99.90;;;;;;5055093;28;20543;-54
2023/10/20 05:58:33;;;;;;;5.47;1.92;;;24.30;99.90;;;;;;5055012;28;20155;-54
2023/10/20 06:01:11;;;;;;;4.53;2.08;;;24.30;99.90;;;;;;5054841;28;20052;-54
2023/10/20 06:03:38;;;;;;;5.13;2.35;;;24.30;99.90;;;;;;5054844;28;20033;-54
2023/10/20 06:06:04;;;;;;;3.88;1.83;;;24.30;99.90;;;;;;5054797;28;20476;-53
2023/10/20 06:08:30;;;;;;;4.72;2.33;;;24.30;99.90;;;;;;5054703;28;20040;-54
2023/10/20 06:11:03;;;;;;;6.15;2.35;;;24.30;99.90;;;;;;5054317;28;20017;-54
2023/10/20 06:13:34;;;;;;;4.78;2.33;;;24.30;99.90;;;;;;5036782;28;20175;-54
2023/10/20 06:16:08;;;;;;;5.30;2.40;;;24.30;99.90;;;;;;5054650;28;20411;-54
2023/10/20 06:18:35;;;;;;;4.63;2.25;;;24.30;99.90;;;;;;5054475;28;20480;-53
2023/10/20 06:21:01;;;;;;;4.53;2.35;;;24.30;99.90;;;;;;5054630;28;20021;-54
2023/10/20 06:23:27;;;;;;;5.22;2.10;;;24.30;99.90;;;;;;5054450;28;20025;-55
2023/10/20 06:25:52;;;;;;;5.45;1.92;;;24.30;99.90;;;;;;5054344;28;20036;-54
2023/10/20 06:28:18;;;;;;;5.00;2.28;;;24.30;99.90;;;;;;5054302;28;20095;-55
2023/10/20 06:30:45;;;;;;;4.60;2.28;;;24.30;99.90;;;;;;5054473;28;20498;-54
2023/10/20 06:35:44;;;;;;;6.25;2.45;;;24.30;99.90;;;;;;5054299;28;20546;-54
2023/10/20 06:40:36;;;;;;;4.05;2.38;;;24.30;99.90;;;;;;5054078;28;20450;-55
2023/10/20 06:43:02;;;;;;;5.10;2.60;;;24.30;99.90;;;;;;5053961;28;20104;-54
2023/10/20 06:45:28;;;;;;;3.80;1.88;;;24.30;99.90;;;;;;5054107;28;20099;-54
2023/10/20 06:47:53;;;;;;;6.00;1.90;;;24.30;99.90;;;;;;5036167;28;20509;-55
2023/10/20 06:50:19;;;;;;;4.30;1.95;;;24.20;99.90;;;;;;5053714;28;20032;-54
2023/10/20 06:52:45;;;;;;;7.07;2.90;;;24.30;99.90;;;;;;5054117;28;20078;-54
2023/10/20 06:55:11;;;;;;;3.67;1.70;;;24.30;99.90;;;;;;5053712;28;20468;-54
2023/10/20 06:57:36;;;;;;;4.10;2.30;;;24.20;99.90;;;;;;5053716;28;20449;-54
2023/10/20 07:00:03;;;;;;;4.07;2.20;;;24.20;99.90;;;;;;5053760;28;20102;-54
2023/10/20 07:02:29;;;;;;;6.45;2.22;;;24.20;99.90;;;;;;5053513;28;20048;-54
2023/10/20 07:04:56;;;;;;;4.05;2.22;;;24.20;99.90;;;;;;5053655;28;20473;-54
2023/10/20 07:07:21;;;;;;;4.70;2.30;;;24.30;99.90;;;;;;5053633;28;20029;-54
2023/10/20 07:09:47;;;;;;;3.78;1.77;;;24.30;99.90;;;;;;5053648;28;20033;-54
2023/10/20 07:12:15;;;;;;;5.03;1.90;;;24.30;99.90;;;;;;5035979;28;20047;-54
2023/10/20 07:14:43;;;;;;;4.97;2.30;;;24.30;99.90;;;;;;5053406;28;20427;-55
2023/10/20 07:17:09;;;;;;;4.35;1.85;;;24.30;99.90;;;;;;5053305;28;20029;-54
2023/10/20 07:19:35;;;;;;;3.45;1.95;;;24.30;99.90;;;;;;5053337;28;20021;-54
2023/10/20 07:22:05;;;;;;;6.55;2.45;;;24.30;99.90;;;;;;5034366;28;20044;-54
2023/10/20 07:24:31;;;;;;;3.22;2.00;;;24.40;99.90;;;;;;5053282;28;20048;-55
2023/10/20 07:26:58;;;;;;;5.32;2.17;;;24.40;99.90;;;;;;5053203;28;20437;-54
2023/10/20 07:29:24;;;;;;;5.55;2.25;;;24.40;99.90;;;;;;5053160;28;20538;-54
2023/10/20 07:31:51;;;;;;;3.55;1.75;;;24.40;99.90;;;;;;5053255;28;20529;-55
2023/10/20 07:34:17;;;;;;;4.13;2.30;;;24.40;99.90;;;;;;5053295;28;20025;-54
2023/10/20 07:36:45;;;;;;;6.25;2.55;;;24.50;99.90;;;;;;5053213;28;20032;-55
2023/10/20 07:39:16;;;;;;;4.32;2.38;;;24.50;99.90;;;;;;5053082;28;20021;-54
2023/10/20 07:41:43;;;;;;;5.40;2.35;;;24.50;99.90;;;;;;5052976;28;20166;-55
2023/10/20 07:44:11;;;;;;;6.95;2.83;;;24.50;99.90;;;;;;5052978;28;20111;-54
2023/10/20 07:46:36;;;;;;;3.45;2.25;;;24.60;99.90;;;;;;5052903;28;20142;-54
2023/10/20 07:49:03;;;;;;;4.05;2.28;;;24.60;99.90;;;;;;5052725;28;20033;-54
2023/10/20 07:51:29;;;;;;;5.38;2.00;;;24.60;99.90;;;;;;5052811;28;20029;-55
2023/10/20 07:53:54;;;;;;;4.40;2.35;;;24.70;99.90;;;;;;5052830;28;20021;-54
2023/10/20 07:56:20;;;;;;;4.07;2.28;;;24.70;99.90;;;;;;5052918;28;20384;-55
2023/10/20 07:58:46;;;;;;;3.47;2.17;;;24.70;99.90;;;;;;5052796;28;20028;-54
2023/10/20 08:01:12;;;;;;;4.38;2.17;;;24.70;99.90;;;;;;5052437;28;20492;-54
2023/10/20 08:03:40;;;;;;;5.25;2.35;;;24.80;99.90;;;;;;5052729;28;20021;-55
2023/10/20 08:06:07;;;;;;;3.95;2.55;;;24.80;99.90;;;;;;5052560;28;20032;-55
2023/10/20 08:08:33;;;;;;;4.65;2.55;;;24.80;99.90;;;;;;5052483;28;20025;-55
2023/10/20 08:10:59;;;;;;;5.40;2.20;;;24.80;99.90;;;;;;5052650;28;20106;-55
2023/10/20 08:13:25;;;;;;;3.92;2.03;;;24.80;99.90;;;;;;5052496;28;20013;-55
2023/10/20 08:15:51;;;;;;;5.15;2.60;;;24.90;99.90;;;;;;5052753;28;20021;-55
2023/10/20 08:18:16;;;;;;;4.80;2.47;;;24.90;99.90;;;;;;5052364;28;20025;-55
2023/10/20 08:20:42;;;;;;;4.28;2.17;;;24.90;99.90;;;;;;5052340;28;20032;-55
2023/10/20 08:23:08;;;;;;;3.63;2.22;;;25.00;99.90;;;;;;5052114;28;20032;-55
2023/10/20 08:25:37;;;;;;;5.60;2.47;;;25.00;99.90;;;;;;5052274;28;20091;-55
2023/10/20 08:28:03;;;;;;;3.42;2.00;;;25.00;99.90;;;;;;5052358;28;20032;-55
2023/10/20 08:30:29;;;;;;;4.25;2.22;;;25.00;99.90;;;;;;5034233;28;20500;-55
2023/10/20 08:32:55;;;;;;;7.13;2.90;;;25.00;99.90;;;;;;5052040;28;20024;-55
2023/10/20 08:35:21;;;;;;;4.13;2.33;;;25.00;99.90;;;;;;5052378;28;20483;-54
2023/10/20 08:37:47;;;;;;;2.45;1.60;;;25.00;99.90;;;;;;5052105;28;20044;-55
2023/10/20 08:40:13;;;;;;;4.90;2.38;;;25.10;99.90;;;;;;5052010;28;20107;-55
2023/10/20 08:42:39;;;;;;;4.10;2.60;;;25.10;99.90;;;;;;5051946;28;20025;-55
2023/10/20 08:45:12;;;;;;;5.05;2.38;;;25.10;99.90;;;;;;5051924;28;20026;-55
2023/10/20 08:47:41;;;;;;;5.03;2.83;;;25.10;99.90;;;;;;5052035;28;20032;-55
2023/10/20 08:50:09;;;;;;;3.58;2.08;;;25.20;99.90;;;;;;5051898;28;20030;-55
2023/10/20 08:52:35;;;;;;;5.30;2.53;;;25.20;99.90;;;;;;5052022;28;20044;-54
2023/10/20 08:55:01;;;;;;;4.57;2.27;;;25.20;99.90;;;;;;5051955;28;20388;-55
2023/10/20 08:57:27;;;;;;;7.03;2.72;;;25.20;99.90;;;;;;5034045;28;20340;-55
2023/10/20 08:59:54;;;;;;;4.00;2.22;;;25.20;99.90;;;;;;5052060;28;20053;-55
2023/10/20 09:02:20;;;;;;;5.55;3.10;;;25.30;99.90;;;;;;5034268;28;20052;-55
2023/10/20 09:04:51;;;;;;;6.93;2.55;;;25.30;99.90;;;;;;5033876;28;20033;-55
2023/10/20 09:07:17;;;;;;;6.18;2.15;;;25.30;99.90;;;;;;5052005;28;20071;-55
2023/10/20 09:09:43;;;;;;;4.35;2.15;;;25.30;99.90;;;;;;5034042;28;20037;-55
2023/10/20 09:12:10;;;;;;;6.47;2.75;;;25.40;99.90;;;;;;5051878;28;20025;-55
2023/10/20 09:14:39;;;;;;;4.20;2.53;;;25.40;99.90;;;;;;5051870;28;20507;-55
2023/10/20 09:17:06;;;;;;;4.38;2.10;;;25.40;99.90;;;;;;5051682;28;20031;-55
2023/10/20 09:19:32;;;;;;;4.47;2.50;;;25.40;99.90;;;;;;5051628;28;20445;-55
2023/10/20 09:21:58;;;;;;;4.70;2.60;;;25.40;99.90;;;;;;5051672;28;20048;-54
2023/10/20 09:24:31;;;;;;;4.28;1.92;;;25.50;99.90;;;;;;5051849;28;20029;-55
2023/10/20 09:26:59;;;;;;;3.75;2.38;;;25.50;99.90;;;;;;5051626;28;20465;-55
2023/10/20 09:29:29;;;;;;;6.07;3.00;;;25.50;99.90;;;;;;5051885;28;20099;-55
2023/10/20 09:32:00;;;;;;;5.28;2.92;;;25.60;99.90;;;;;;5051874;28;20017;-55
2023/10/20 09:34:26;;;;;;;4.07;2.60;;;25.60;99.90;;;;;;5051535;28;20029;-55
2023/10/20 09:36:53;;;;;;;4.32;2.33;;;25.60;99.90;;;;;;5051920;28;20033;-55
2023/10/20 09:39:39;;;;;;;4.20;2.45;;;25.70;99.90;;;;;;5051605;28;20037;-55
2023/10/20 09:42:06;;;;;;;4.60;2.65;;;25.70;99.90;;;;;;5051516;28;20028;-55
2023/10/20 09:44:47;;;;;;;4.65;2.50;;;25.80;99.90;;;;;;5051575;28;20435;-56
2023/10/20 09:47:24;;;;;;;5.15;2.78;;;25.80;99.90;;;;;;5055295;28;20396;-55
2023/10/20 09:49:52;;;;;;;7.38;3.33;;;25.80;99.90;;;;;;5055058;28;20033;-56
2023/10/20 09:52:19;;;;;;;3.90;2.58;;;25.80;99.90;;;;;;5055056;28;20071;-55
2023/10/20 09:54:50;;;;;;;4.28;2.42;;;25.90;99.90;;;;;;5037113;28;20052;-55
2023/10/20 09:57:19;;;;;;;4.60;2.42;;;26.00;99.90;;;;;;5054963;28;20100;-56
2023/10/20 09:59:52;;;;;;;5.35;2.38;;;26.00;99.90;;;;;;5055011;28;20365;-55
2023/10/20 10:02:29;;;;;;;6.05;3.30;;;26.10;99.90;;;;;;5054672;28;20401;-54
2023/10/20 10:05:00;;;;;;;4.97;2.30;;;26.10;99.90;;;;;;5055013;28;20021;-54
2023/10/20 10:07:32;;;;;;;4.72;2.67;;;26.20;99.90;;;;;;5054895;28;20049;-55
2023/10/20 10:09:58;;;;;;;3.63;2.78;;;26.20;99.90;;;;;;5054609;28;20483;-55
2023/10/20 10:12:27;;;;;;;6.15;3.20;;;26.20;99.90;;;;;;5054882;28;20075;-55
2023/10/20 10:15:07;;;;;;;4.80;2.85;;;26.30;99.90;;;;;;5055025;28;20048;-55
2023/10/20 10:17:47;;;;;;;3.92;2.33;;;26.40;99.90;;;;;;5054514;28;20025;-56
2023/10/20 10:20:23;;;;;;;4.35;2.60;;;26.40;99.90;;;;;;5054541;28;20025;-54
2023/10/20 10:23:04;;;;;;;4.37;2.33;;;26.50;99.90;;;;;;5054530;28;20037;-55
2023/10/20 10:25:39;;;;;;;5.65;2.83;;;26.50;99.90;;;;;;5054567;28;20059;-54
2023/10/20 10:28:24;;;;;;;5.00;1.95;;;26.60;99.90;;;;;;5054390;28;20021;-55
2023/10/20 10:30:54;;;;;;;5.93;3.08;;;26.60;99.90;;;;;;5054296;28;20075;-55
2023/10/20 10:33:24;;;;;;;5.25;2.50;;;26.60;99.90;;;;;;5054263;28;20049;-55
2023/10/20 10:36:01;;;;;;;4.57;2.70;;;26.70;99.90;;;;;;5054344;28;20033;-54
2023/10/20 10:38:29;;;;;;;5.55;2.40;;;26.70;99.90;;;;;;5054392;28;20021;-55
2023/10/20 10:40:55;;;;;;;5.68;2.90;;;26.80;99.90;;;;;;5054356;28;20106;-55
2023/10/20 10:43:21;;;;;;;8.05;2.80;;;26.80;99.90;;;;;;5036121;28;20025;-55
2023/10/20 10:45:54;;;;;;;5.45;2.80;;;26.80;99.90;;;;;;5054136;28;20025;-54
2023/10/20 10:48:24;;;;;;;3.78;2.40;;;26.90;99.90;;;;;;5053992;28;20025;-54
2023/10/20 10:50:51;;;;;;;4.85;2.78;;;26.90;99.90;;;;;;5053904;28;20424;-55
2023/10/20 10:53:17;;;;;;;5.97;2.67;;;27.00;99.90;;;;;;5036349;28;20036;-55
2023/10/20 10:55:43;;;;;;;5.68;2.75;;;26.90;99.90;;;;;;5053704;28;20033;-54
2023/10/20 10:58:10;;;;;;;4.10;2.42;;;27.00;99.90;;;;;;5034780;28;20117;-54
2023/10/20 11:00:38;;;;;;;4.32;2.25;;;27.00;99.90;;;;;;5053727;28;20025;-55
2023/10/20 11:03:05;;;;;;;4.13;2.30;;;27.00;99.90;;;;;;5035785;28;20437;-54
2023/10/20 11:05:32;;;;;;;2.80;2.10;;;27.10;99.90;;;;;;5053669;28;20031;-55
2023/10/20 11:08:02;;;;;;;4.22;2.85;;;27.10;99.90;;;;;;5053855;28;20053;-55
2023/10/20 11:10:29;;;;;;;4.18;2.50;;;27.10;99.90;;;;;;5053656;28;20033;-55
2023/10/20 11:12:59;;;;;;;4.85;2.38;;;27.10;99.90;;;;;;5053506;28;20025;-55
2023/10/20 11:15:28;;;;;;;5.15;3.05;;;27.10;99.90;;;;;;5053496;28;20037;-55
2023/10/20 11:17:57;;;;;;;4.00;2.42;;;27.10;99.90;;;;;;5053449;28;20025;-54
2023/10/20 11:20:23;;;;;;;4.13;2.42;;;27.10;99.90;;;;;;5053274;28;20495;-54
2023/10/20 11:22:53;;;;;;;3.63;2.47;;;27.10;99.90;;;;;;5053463;28;20034;-55
2023/10/20 11:25:20;;;;;;;7.03;2.88;;;27.10;99.90;;;;;;5053379;28;20032;-55
2023/10/20 11:27:54;;;;;;;4.57;2.53;;;27.10;99.90;;;;;;5035358;28;20029;-55
2023/10/20 11:30:27;;;;;;;5.50;3.10;;;27.10;99.90;;;;;;5052885;28;20044;-55
2023/10/20 11:32:54;;;;;;;5.20;2.55;;;27.10;99.90;;;;;;5053066;28;20100;-55
2023/10/20 11:35:27;;;;;;;4.53;2.92;;;27.00;99.90;;;;;;5053156;28;20048;-55
2023/10/20 11:37:54;;;;;;;4.35;2.50;;;27.10;99.90;;;;;;5053065;28;20087;-55
2023/10/20 11:40:21;;;;;;;4.07;2.72;;;27.00;99.90;;;;;;5052923;28;20409;-55
2023/10/20 11:42:48;;;;;;;7.20;3.28;;;27.00;99.90;;;;;;5052795;28;20448;-55
2023/10/20 11:45:15;;;;;;;4.82;3.13;;;27.10;99.90;;;;;;5052981;28;20037;-55
2023/10/20 11:47:40;;;;;;;7.07;3.60;;;27.10;99.90;;;;;;5052896;28;20075;-55
2023/10/20 11:50:10;;;;;;;5.60;3.08;;;27.10;99.90;;;;;;5034959;28;20504;-55
2023/10/20 11:52:40;;;;;;;4.68;2.78;;;27.10;99.90;;;;;;5052812;28;20102;-55
2023/10/20 11:55:08;;;;;;;6.28;3.25;;;27.20;99.90;;;;;;5052634;28;20017;-55
2023/10/20 11:57:35;;;;;;;5.50;3.15;;;27.20;99.90;;;;;;5052667;28;20025;-55
2023/10/20 12:00:10;;;;;;;4.85;3.20;;;27.20;99.90;;;;;;5052881;28;20028;-55
2023/10/20 12:02:39;;;;;;;5.40;3.17;;;27.30;99.90;;;;;;5052416;28;20043;-55
2023/10/20 12:05:06;;;;;;;4.75;3.28;;;27.30;99.90;;;;;;5052748;28;20021;-55
2023/10/20 12:07:32;;;;;;;4.78;3.40;;;27.30;99.90;;;;;;5052405;28;20024;-55
2023/10/20 12:09:58;;;;;;;6.33;3.70;;;27.30;99.90;;;;;;5052286;28;20041;-54
2023/10/20 12:12:24;;;;;;;4.70;3.05;;;27.40;99.90;;;;;;5052229;28;20090;-55
2023/10/20 12:14:51;;;;;;;5.05;3.50;;;27.40;99.90;;;;;;5052449;28;20032;-54
2023/10/20 12:17:17;;;;;;;4.75;2.92;;;27.40;99.90;;;;;;5052435;28;20540;-54
2023/10/20 12:19:43;;;;;;;5.47;3.10;;;27.40;99.90;;;;;;5052441;28;20116;-54
2023/10/20 12:22:09;;;;;;;5.30;3.35;;;27.40;99.90;;;;;;5052447;28;20514;-54
2023/10/20 12:24:35;;;;;;;4.97;3.20;;;27.40;99.90;;;;;;5052297;28;20028;-54
2023/10/20 12:27:02;;;;;;;5.85;3.20;;;27.50;99.90;;;;;;5052539;28;20018;-54
2023/10/20 12:29:28;;;;;;;5.43;3.47;;;27.50;99.90;;;;;;5052151;28;20060;-54
2023/10/20 12:31:54;;;;;;;5.35;3.45;;;27.50;99.90;;;;;;5052215;28;20366;-54
2023/10/20 12:34:20;;;;;;;7.70;3.63;;;27.60;99.90;;;;;;5052099;28;20111;-54
2023/10/20 12:36:48;;;;;;;6.25;3.60;;;27.60;99.90;;;;;;5052119;28;20032;-54
2023/10/20 12:39:20;;;;;;;5.10;3.35;;;27.60;99.90;;;;;;5052214;28;20512;-54
2023/10/20 12:41:47;;;;;;;6.10;3.67;;;27.60;99.90;;;;;;5052216;28;20021;-54
2023/10/20 12:44:13;;;;;;;4.72;3.35;;;27.60;99.90;;;;;;5052048;28;20021;-54
2023/10/20 12:46:40;;;;;;;4.17;3.27;;;27.70;99.90;;;;;;5052077;28;20025;-54
2023/10/20 12:49:06;;;;;;;5.32;3.83;;;27.70;99.90;;;;;;5052094;28;20404;-54
2023/10/20 12:51:33;;;;;;;6.00;3.95;;;27.70;99.90;;;;;;5052095;28;20150;-54
2023/10/20 12:54:01;;;;;;;5.57;3.00;;;27.70;99.90;;;;;;5052061;28;20017;-54
2023/10/20 12:56:27;;;;;;;5.07;3.38;;;27.70;99.90;;;;;;5051952;28;20060;-55
2023/10/20 12:58:53;;;;;;;5.05;3.40;;;27.80;99.90;;;;;;5051920;28;20032;-55
2023/10/20 13:01:19;;;;;;;5.00;3.55;;;27.80;99.90;;;;;;5051841;28;20547;-54
2023/10/20 13:03:45;;;;;;;5.70;3.67;;;27.80;99.90;;;;;;5051896;28;20021;-55
2023/10/20 13:06:11;;;;;;;6.07;3.60;;;27.80;99.90;;;;;;5033950;28;20108;-54
2023/10/20 13:08:37;;;;;;;5.63;3.40;;;27.90;99.90;;;;;;5051816;28;20028;-55
2023/10/20 13:11:04;;;;;;;7.45;4.38;;;27.90;99.90;;;;;;5052015;28;20112;-54
2023/10/20 13:13:32;;;;;;;6.07;3.95;;;27.90;99.90;;;;;;5051966;28;20083;-54